首页
METAR-TAF:

METAR-TAF

机场 :

沈阳桃仙国际机场

沈阳, 中华人民共和国

纬度: 41-48N, 经度: 123-24E, 海拔: 35米

当前天气观测

该预报发布于34分钟前的07:30 UTC
风速14节,风向
温度 11°C
湿度 87%
气压 1010 hPa
能见度10公里或以上
散云层高于1600英尺
阴天层高于4000英尺
小雨

METAR: ZYTX 220730Z 35007MPS 9999 -RA SCT016 OVC040 11/09 Q1010 NOSIG

时间: 16:04 (08:04 UTC)

预报

该预报发布于5小时和34分钟前的02:30 UTC
预报有效从22日的 06点(UTC)到 23日的 06点(UTC)
风速10节,风向西南
能見度: 6000
阴天层高于4000英尺
小雨
成为
从 22日的 13点(UTC)到 22日的 14点(UTC)
能见度10公里或以上
1500米以下无云,无积雨云
短暂存在
从 22日的 06点(UTC)到 22日的 12点(UTC)
能見度: 2000
少量云层高于3000英尺, 积雨云.
多云层高于3300英尺
雷暴, 雨

TAF: ZYTX 220230Z 2206/2306 22005MPS 6000 -RA OVC040 TX24/2206Z TN06/2221Z BECMG 2213/2214 CAVOK TEMPO 2206/2212 2000 TSRA FEW030CB BKN033

超过4000个机场的气象观测和天气预报(METAR&TAF报告)。

可查询的气象台以黄色和红色小点在地图上表示。

将鼠标移到小点上方,可查看气象台名称。

然后点击查看天气观测和预报。

如需切换地图:点击带黑十字的绿色按钮放大地图;点击带横线的绿色按钮缩小地图;或者点击绿色箭头查看邻近地区的地图。


METAR-TAF: